sensor_id;sensor_type;location;lat;lon;timestamp;P1;durP1;ratioP1;P2;durP2;ratioP2
5811;SDS011;2932;52.400;9.558;2023-05-13T00:01:03;4.82;;;4.28;;
5811;SDS011;2932;52.400;9.558;2023-05-13T00:03:28;6.70;;;4.22;;
5811;SDS011;2932;52.400;9.558;2023-05-13T00:05:53;5.18;;;3.38;;
5811;SDS011;2932;52.400;9.558;2023-05-13T00:08:19;6.10;;;4.33;;
5811;SDS011;2932;52.400;9.558;2023-05-13T00:10:44;6.10;;;3.80;;
5811;SDS011;2932;52.400;9.558;2023-05-13T00:13:09;6.93;;;4.28;;
5811;SDS011;2932;52.400;9.558;2023-05-13T00:15:35;4.45;;;4.00;;
5811;SDS011;2932;52.400;9.558;2023-05-13T00:18:01;8.80;;;4.40;;
5811;SDS011;2932;52.400;9.558;2023-05-13T00:20:26;4.90;;;4.13;;
5811;SDS011;2932;52.400;9.558;2023-05-13T00:22:51;6.10;;;4.07;;
5811;SDS011;2932;52.400;9.558;2023-05-13T00:25:17;5.15;;;3.83;;
5811;SDS011;2932;52.400;9.558;2023-05-13T00:27:42;8.40;;;4.90;;
5811;SDS011;2932;52.400;9.558;2023-05-13T00:30:07;5.47;;;4.27;;
5811;SDS011;2932;52.400;9.558;2023-05-13T00:32:33;4.50;;;3.83;;
5811;SDS011;2932;52.400;9.558;2023-05-13T00:34:58;5.57;;;4.40;;
5811;SDS011;2932;52.400;9.558;2023-05-13T00:37:24;5.17;;;4.00;;
5811;SDS011;2932;52.400;9.558;2023-05-13T00:39:49;8.27;;;4.23;;
5811;SDS011;2932;52.400;9.558;2023-05-13T00:42:14;5.33;;;4.07;;
5811;SDS011;2932;52.400;9.558;2023-05-13T00:44:40;6.73;;;4.30;;
5811;SDS011;2932;52.400;9.558;2023-05-13T00:47:05;4.87;;;4.17;;
5811;SDS011;2932;52.400;9.558;2023-05-13T00:49:31;6.00;;;4.20;;
5811;SDS011;2932;52.400;9.558;2023-05-13T00:51:57;5.43;;;4.40;;
5811;SDS011;2932;52.400;9.558;2023-05-13T00:54:23;5.57;;;4.27;;
5811;SDS011;2932;52.400;9.558;2023-05-13T00:56:49;5.93;;;4.80;;
5811;SDS011;2932;52.400;9.558;2023-05-13T00:59:18;5.43;;;4.20;;
5811;SDS011;2932;52.400;9.558;2023-05-13T01:01:51;8.07;;;3.80;;
5811;SDS011;2932;52.400;9.558;2023-05-13T01:10:22;6.73;;;4.20;;
5811;SDS011;2932;52.400;9.558;2023-05-13T01:12:56;6.43;;;4.70;;
5811;SDS011;2932;52.400;9.558;2023-05-13T01:15:24;6.47;;;4.40;;
5811;SDS011;2932;52.400;9.558;2023-05-13T01:17:56;6.33;;;4.57;;
5811;SDS011;2932;52.400;9.558;2023-05-13T01:20:23;5.93;;;4.37;;
5811;SDS011;2932;52.400;9.558;2023-05-13T01:22:51;10.70;;;4.53;;
5811;SDS011;2932;52.400;9.558;2023-05-13T01:25:17;8.13;;;5.67;;
5811;SDS011;2932;52.400;9.558;2023-05-13T01:27:42;6.88;;;5.15;;
5811;SDS011;2932;52.400;9.558;2023-05-13T01:30:08;9.60;;;4.90;;
5811;SDS011;2932;52.400;9.558;2023-05-13T01:32:34;5.57;;;4.30;;
5811;SDS011;2932;52.400;9.558;2023-05-13T01:35:01;7.83;;;4.90;;
5811;SDS011;2932;52.400;9.558;2023-05-13T01:37:27;5.60;;;5.07;;
5811;SDS011;2932;52.400;9.558;2023-05-13T01:39:53;5.83;;;4.80;;
5811;SDS011;2932;52.400;9.558;2023-05-13T01:42:19;8.13;;;4.70;;
5811;SDS011;2932;52.400;9.558;2023-05-13T01:44:47;4.80;;;4.30;;
5811;SDS011;2932;52.400;9.558;2023-05-13T01:47:12;9.13;;;4.93;;
5811;SDS011;2932;52.400;9.558;2023-05-13T01:49:38;8.23;;;4.97;;
5811;SDS011;2932;52.400;9.558;2023-05-13T01:52:03;8.17;;;5.20;;
5811;SDS011;2932;52.400;9.558;2023-05-13T01:54:29;7.93;;;5.40;;
5811;SDS011;2932;52.400;9.558;2023-05-13T01:56:54;4.93;;;4.47;;
5811;SDS011;2932;52.400;9.558;2023-05-13T01:59:20;7.47;;;4.83;;
5811;SDS011;2932;52.400;9.558;2023-05-13T02:01:45;6.87;;;4.40;;
5811;SDS011;2932;52.400;9.558;2023-05-13T02:04:11;6.47;;;4.83;;
5811;SDS011;2932;52.400;9.558;2023-05-13T02:06:36;7.37;;;5.13;;
5811;SDS011;2932;52.400;9.558;2023-05-13T02:09:01;9.17;;;5.10;;
5811;SDS011;2932;52.400;9.558;2023-05-13T02:11:27;5.87;;;4.80;;
5811;SDS011;2932;52.400;9.558;2023-05-13T02:13:52;6.53;;;4.80;;
5811;SDS011;2932;52.400;9.558;2023-05-13T02:16:18;6.07;;;4.43;;
5811;SDS011;2932;52.400;9.558;2023-05-13T02:18:43;5.43;;;4.20;;
5811;SDS011;2932;52.400;9.558;2023-05-13T02:21:09;7.50;;;4.87;;
5811;SDS011;2932;52.400;9.558;2023-05-13T02:23:34;6.87;;;5.20;;
5811;SDS011;2932;52.400;9.558;2023-05-13T02:26:00;6.30;;;4.17;;
5811;SDS011;2932;52.400;9.558;2023-05-13T02:28:25;6.20;;;4.97;;
5811;SDS011;2932;52.400;9.558;2023-05-13T02:30:50;5.23;;;4.73;;
5811;SDS011;2932;52.400;9.558;2023-05-13T02:33:16;5.90;;;4.73;;
5811;SDS011;2932;52.400;9.558;2023-05-13T02:35:41;5.70;;;4.63;;
5811;SDS011;2932;52.400;9.558;2023-05-13T02:38:10;5.93;;;4.70;;
5811;SDS011;2932;52.400;9.558;2023-05-13T02:40:36;6.43;;;4.87;;
5811;SDS011;2932;52.400;9.558;2023-05-13T02:43:02;5.97;;;4.53;;
5811;SDS011;2932;52.400;9.558;2023-05-13T02:45:27;7.10;;;4.97;;
5811;SDS011;2932;52.400;9.558;2023-05-13T02:47:52;8.37;;;4.83;;
5811;SDS011;2932;52.400;9.558;2023-05-13T02:50:18;12.10;;;5.70;;
5811;SDS011;2932;52.400;9.558;2023-05-13T02:52:43;5.20;;;4.70;;
5811;SDS011;2932;52.400;9.558;2023-05-13T02:55:09;6.77;;;5.10;;
5811;SDS011;2932;52.400;9.558;2023-05-13T02:57:34;8.03;;;4.80;;
5811;SDS011;2932;52.400;9.558;2023-05-13T03:00:01;5.93;;;5.23;;
5811;SDS011;2932;52.400;9.558;2023-05-13T03:02:31;7.17;;;5.00;;
5811;SDS011;2932;52.400;9.558;2023-05-13T03:04:57;7.47;;;4.73;;
5811;SDS011;2932;52.400;9.558;2023-05-13T03:07:22;7.47;;;4.97;;
5811;SDS011;2932;52.400;9.558;2023-05-13T03:09:48;6.37;;;5.00;;
5811;SDS011;2932;52.400;9.558;2023-05-13T03:12:14;10.47;;;5.10;;
5811;SDS011;2932;52.400;9.558;2023-05-13T03:14:39;5.70;;;5.00;;
5811;SDS011;2932;52.400;9.558;2023-05-13T03:17:05;5.40;;;4.90;;
5811;SDS011;2932;52.400;9.558;2023-05-13T03:19:32;7.87;;;5.33;;
5811;SDS011;2932;52.400;9.558;2023-05-13T03:21:58;6.47;;;5.40;;
5811;SDS011;2932;52.400;9.558;2023-05-13T03:24:23;7.30;;;5.00;;
5811;SDS011;2932;52.400;9.558;2023-05-13T03:26:48;8.93;;;5.20;;
5811;SDS011;2932;52.400;9.558;2023-05-13T03:29:14;5.93;;;5.00;;
5811;SDS011;2932;52.400;9.558;2023-05-13T03:31:40;6.77;;;4.80;;
5811;SDS011;2932;52.400;9.558;2023-05-13T03:34:05;8.00;;;4.87;;
5811;SDS011;2932;52.400;9.558;2023-05-13T03:36:31;5.90;;;4.57;;
5811;SDS011;2932;52.400;9.558;2023-05-13T03:38:56;8.23;;;5.50;;
5811;SDS011;2932;52.400;9.558;2023-05-13T03:41:21;6.47;;;4.90;;
5811;SDS011;2932;52.400;9.558;2023-05-13T03:43:47;7.37;;;4.90;;
5811;SDS011;2932;52.400;9.558;2023-05-13T03:46:12;6.10;;;5.50;;
5811;SDS011;2932;52.400;9.558;2023-05-13T03:48:37;6.30;;;5.43;;
5811;SDS011;2932;52.400;9.558;2023-05-13T03:51:02;5.73;;;5.10;;
5811;SDS011;2932;52.400;9.558;2023-05-13T03:53:28;10.63;;;8.87;;
5811;SDS011;2932;52.400;9.558;2023-05-13T03:55:53;9.57;;;5.70;;
5811;SDS011;2932;52.400;9.558;2023-05-13T03:58:19;6.60;;;5.00;;
5811;SDS011;2932;52.400;9.558;2023-05-13T04:00:46;9.90;;;4.73;;
5811;SDS011;2932;52.400;9.558;2023-05-13T04:03:16;9.40;;;5.37;;
5811;SDS011;2932;52.400;9.558;2023-05-13T04:05:42;8.37;;;4.87;;
5811;SDS011;2932;52.400;9.558;2023-05-13T04:08:10;6.70;;;5.13;;
5811;SDS011;2932;52.400;9.558;2023-05-13T04:10:35;5.53;;;5.03;;
5811;SDS011;2932;52.400;9.558;2023-05-13T04:13:00;5.80;;;4.83;;
5811;SDS011;2932;52.400;9.558;2023-05-13T04:15:26;7.83;;;5.50;;
5811;SDS011;2932;52.400;9.558;2023-05-13T04:17:51;6.67;;;5.00;;
5811;SDS011;2932;52.400;9.558;2023-05-13T04:20:17;7.27;;;4.73;;
5811;SDS011;2932;52.400;9.558;2023-05-13T04:22:43;5.17;;;4.67;;
5811;SDS011;2932;52.400;9.558;2023-05-13T04:25:08;5.97;;;4.53;;
5811;SDS011;2932;52.400;9.558;2023-05-13T04:27:34;6.50;;;5.07;;
5811;SDS011;2932;52.400;9.558;2023-05-13T04:29:59;5.10;;;4.60;;
5811;SDS011;2932;52.400;9.558;2023-05-13T04:32:25;5.27;;;4.63;;
5811;SDS011;2932;52.400;9.558;2023-05-13T04:34:50;5.50;;;5.00;;
5811;SDS011;2932;52.400;9.558;2023-05-13T04:37:16;7.73;;;5.10;;
5811;SDS011;2932;52.400;9.558;2023-05-13T04:42:10;7.37;;;5.20;;
5811;SDS011;2932;52.400;9.558;2023-05-13T04:44:35;10.50;;;6.53;;
5811;SDS011;2932;52.400;9.558;2023-05-13T04:47:00;7.13;;;6.30;;
5811;SDS011;2932;52.400;9.558;2023-05-13T04:49:26;10.33;;;5.60;;
5811;SDS011;2932;52.400;9.558;2023-05-13T04:51:52;7.23;;;5.40;;
5811;SDS011;2932;52.400;9.558;2023-05-13T04:54:17;5.10;;;4.60;;
5811;SDS011;2932;52.400;9.558;2023-05-13T04:56:42;6.43;;;5.27;;
5811;SDS011;2932;52.400;9.558;2023-05-13T04:59:08;10.67;;;4.90;;
5811;SDS011;2932;52.400;9.558;2023-05-13T05:01:33;9.07;;;5.53;;
5811;SDS011;2932;52.400;9.558;2023-05-13T05:03:59;5.27;;;4.40;;
5811;SDS011;2932;52.400;9.558;2023-05-13T05:06:24;5.80;;;5.20;;
5811;SDS011;2932;52.400;9.558;2023-05-13T05:08:50;5.83;;;4.63;;
5811;SDS011;2932;52.400;9.558;2023-05-13T05:11:15;8.40;;;4.80;;
5811;SDS011;2932;52.400;9.558;2023-05-13T05:13:41;8.95;;;5.25;;
5811;SDS011;2932;52.400;9.558;2023-05-13T05:16:06;5.10;;;4.60;;
5811;SDS011;2932;52.400;9.558;2023-05-13T05:18:32;7.70;;;4.10;;
5811;SDS011;2932;52.400;9.558;2023-05-13T05:20:59;4.60;;;4.13;;
5811;SDS011;2932;52.400;9.558;2023-05-13T05:23:25;5.50;;;4.50;;
5811;SDS011;2932;52.400;9.558;2023-05-13T05:25:50;4.93;;;4.43;;
5811;SDS011;2932;52.400;9.558;2023-05-13T05:28:15;6.70;;;4.67;;
5811;SDS011;2932;52.400;9.558;2023-05-13T05:30:41;7.57;;;4.13;;
5811;SDS011;2932;52.400;9.558;2023-05-13T05:33:07;7.63;;;4.57;;
5811;SDS011;2932;52.400;9.558;2023-05-13T05:35:32;5.78;;;4.53;;
5811;SDS011;2932;52.400;9.558;2023-05-13T05:38:01;9.30;;;4.63;;
5811;SDS011;2932;52.400;9.558;2023-05-13T05:40:28;5.47;;;4.47;;
5811;SDS011;2932;52.400;9.558;2023-05-13T05:42:53;6.70;;;5.43;;
5811;SDS011;2932;52.400;9.558;2023-05-13T05:45:19;4.87;;;4.47;;
5811;SDS011;2932;52.400;9.558;2023-05-13T05:47:44;5.17;;;4.67;;
5811;SDS011;2932;52.400;9.558;2023-05-13T05:50:09;4.72;;;4.15;;
5811;SDS011;2932;52.400;9.558;2023-05-13T05:52:35;7.18;;;4.45;;
5811;SDS011;2932;52.400;9.558;2023-05-13T05:55:00;5.18;;;4.65;;
5811;SDS011;2932;52.400;9.558;2023-05-13T05:57:26;7.72;;;5.53;;
5811;SDS011;2932;52.400;9.558;2023-05-13T05:59:51;6.57;;;4.00;;
5811;SDS011;2932;52.400;9.558;2023-05-13T06:02:17;6.72;;;4.57;;
5811;SDS011;2932;52.400;9.558;2023-05-13T06:04:42;11.77;;;5.57;;
5811;SDS011;2932;52.400;9.558;2023-05-13T06:07:07;8.07;;;4.70;;
5811;SDS011;2932;52.400;9.558;2023-05-13T06:09:32;5.32;;;4.72;;
5811;SDS011;2932;52.400;9.558;2023-05-13T06:11:58;6.63;;;4.65;;
5811;SDS011;2932;52.400;9.558;2023-05-13T06:14:23;4.25;;;3.85;;
5811;SDS011;2932;52.400;9.558;2023-05-13T06:16:49;6.25;;;3.72;;
5811;SDS011;2932;52.400;9.558;2023-05-13T06:19:14;4.78;;;4.30;;
5811;SDS011;2932;52.400;9.558;2023-05-13T06:21:39;8.68;;;4.05;;
5811;SDS011;2932;52.400;9.558;2023-05-13T06:24:07;4.55;;;3.67;;
5811;SDS011;2932;52.400;9.558;2023-05-13T06:26:32;4.32;;;3.67;;
5811;SDS011;2932;52.400;9.558;2023-05-13T06:28:58;8.02;;;3.90;;
5811;SDS011;2932;52.400;9.558;2023-05-13T06:31:23;5.63;;;3.30;;
5811;SDS011;2932;52.400;9.558;2023-05-13T06:33:48;8.73;;;3.72;;
5811;SDS011;2932;52.400;9.558;2023-05-13T06:36:14;6.82;;;3.58;;
5811;SDS011;2932;52.400;9.558;2023-05-13T06:38:42;6.70;;;3.58;;
5811;SDS011;2932;52.400;9.558;2023-05-13T06:41:07;6.53;;;4.68;;
5811;SDS011;2932;52.400;9.558;2023-05-13T06:43:32;6.30;;;3.60;;
5811;SDS011;2932;52.400;9.558;2023-05-13T06:45:58;4.75;;;4.05;;
5811;SDS011;2932;52.400;9.558;2023-05-13T06:48:23;6.75;;;4.13;;
5811;SDS011;2932;52.400;9.558;2023-05-13T06:50:49;9.07;;;3.75;;
5811;SDS011;2932;52.400;9.558;2023-05-13T06:53:14;4.70;;;3.78;;
5811;SDS011;2932;52.400;9.558;2023-05-13T06:55:40;4.22;;;3.50;;
5811;SDS011;2932;52.400;9.558;2023-05-13T06:58:06;7.25;;;3.65;;
5811;SDS011;2932;52.400;9.558;2023-05-13T07:00:35;7.07;;;4.15;;
5811;SDS011;2932;52.400;9.558;2023-05-13T07:03:02;7.05;;;3.80;;
5811;SDS011;2932;52.400;9.558;2023-05-13T07:05:28;6.85;;;3.75;;
5811;SDS011;2932;52.400;9.558;2023-05-13T07:07:53;4.53;;;3.60;;
5811;SDS011;2932;52.400;9.558;2023-05-13T07:10:19;5.93;;;3.58;;
5811;SDS011;2932;52.400;9.558;2023-05-13T07:12:44;5.03;;;3.50;;
5811;SDS011;2932;52.400;9.558;2023-05-13T07:15:10;4.10;;;3.60;;
5811;SDS011;2932;52.400;9.558;2023-05-13T07:17:35;8.75;;;4.05;;
5811;SDS011;2932;52.400;9.558;2023-05-13T07:20:01;4.80;;;3.17;;
5811;SDS011;2932;52.400;9.558;2023-05-13T07:22:26;5.07;;;3.30;;
5811;SDS011;2932;52.400;9.558;2023-05-13T07:24:52;4.75;;;3.63;;
5811;SDS011;2932;52.400;9.558;2023-05-13T07:27:18;6.68;;;3.78;;
5811;SDS011;2932;52.400;9.558;2023-05-13T07:29:45;6.95;;;3.85;;
5811;SDS011;2932;52.400;9.558;2023-05-13T07:32:11;6.03;;;3.45;;
5811;SDS011;2932;52.400;9.558;2023-05-13T07:34:36;6.10;;;3.72;;
5811;SDS011;2932;52.400;9.558;2023-05-13T07:37:01;5.03;;;3.60;;
5811;SDS011;2932;52.400;9.558;2023-05-13T07:39:28;4.65;;;3.70;;
5811;SDS011;2932;52.400;9.558;2023-05-13T07:41:54;5.95;;;3.75;;
5811;SDS011;2932;52.400;9.558;2023-05-13T07:44:19;5.50;;;3.83;;
5811;SDS011;2932;52.400;9.558;2023-05-13T07:46:45;4.50;;;3.78;;
5811;SDS011;2932;52.400;9.558;2023-05-13T07:49:10;4.07;;;3.67;;
5811;SDS011;2932;52.400;9.558;2023-05-13T07:51:35;4.68;;;3.47;;
5811;SDS011;2932;52.400;9.558;2023-05-13T07:54:01;6.70;;;3.30;;
5811;SDS011;2932;52.400;9.558;2023-05-13T07:56:26;6.57;;;4.03;;
5811;SDS011;2932;52.400;9.558;2023-05-13T07:58:52;5.80;;;3.25;;
5811;SDS011;2932;52.400;9.558;2023-05-13T08:01:17;7.03;;;3.78;;
5811;SDS011;2932;52.400;9.558;2023-05-13T08:03:42;8.73;;;3.67;;
5811;SDS011;2932;52.400;9.558;2023-05-13T08:06:08;5.57;;;3.88;;
5811;SDS011;2932;52.400;9.558;2023-05-13T08:08:33;6.20;;;3.47;;
5811;SDS011;2932;52.400;9.558;2023-05-13T08:10:58;6.35;;;4.20;;
5811;SDS011;2932;52.400;9.558;2023-05-13T08:13:24;7.88;;;3.60;;
5811;SDS011;2932;52.400;9.558;2023-05-13T08:15:49;6.10;;;3.50;;
5811;SDS011;2932;52.400;9.558;2023-05-13T08:18:16;4.78;;;3.85;;
5811;SDS011;2932;52.400;9.558;2023-05-13T08:20:41;4.82;;;3.78;;
5811;SDS011;2932;52.400;9.558;2023-05-13T08:23:07;9.15;;;3.65;;
5811;SDS011;2932;52.400;9.558;2023-05-13T08:25:32;4.18;;;3.65;;
5811;SDS011;2932;52.400;9.558;2023-05-13T08:27:57;5.95;;;3.30;;
5811;SDS011;2932;52.400;9.558;2023-05-13T08:30:23;6.47;;;3.20;;
5811;SDS011;2932;52.400;9.558;2023-05-13T08:32:48;3.05;;;2.75;;
5811;SDS011;2932;52.400;9.558;2023-05-13T08:35:13;5.88;;;3.13;;
5811;SDS011;2932;52.400;9.558;2023-05-13T08:37:38;4.25;;;2.80;;
5811;SDS011;2932;52.400;9.558;2023-05-13T08:40:04;7.57;;;3.33;;
5811;SDS011;2932;52.400;9.558;2023-05-13T08:42:33;6.40;;;2.80;;
5811;SDS011;2932;52.400;9.558;2023-05-13T08:45:02;11.00;;;3.28;;
5811;SDS011;2932;52.400;9.558;2023-05-13T08:47:34;5.15;;;3.17;;
5811;SDS011;2932;52.400;9.558;2023-05-13T08:50:07;8.20;;;2.92;;
5811;SDS011;2932;52.400;9.558;2023-05-13T08:52:33;9.25;;;3.40;;
5811;SDS011;2932;52.400;9.558;2023-05-13T08:54:59;4.30;;;3.10;;
5811;SDS011;2932;52.400;9.558;2023-05-13T08:57:26;6.30;;;2.92;;
5811;SDS011;2932;52.400;9.558;2023-05-13T08:59:51;4.28;;;2.90;;
5811;SDS011;2932;52.400;9.558;2023-05-13T09:02:17;4.95;;;3.15;;
5811;SDS011;2932;52.400;9.558;2023-05-13T09:04:42;9.25;;;3.55;;
5811;SDS011;2932;52.400;9.558;2023-05-13T09:07:15;3.63;;;3.17;;
5811;SDS011;2932;52.400;9.558;2023-05-13T09:09:40;4.03;;;3.63;;
5811;SDS011;2932;52.400;9.558;2023-05-13T09:12:05;4.32;;;3.20;;
5811;SDS011;2932;52.400;9.558;2023-05-13T09:14:31;6.10;;;3.55;;
5811;SDS011;2932;52.400;9.558;2023-05-13T09:17:00;10.43;;;3.80;;
5811;SDS011;2932;52.400;9.558;2023-05-13T09:19:26;5.07;;;3.35;;
5811;SDS011;2932;52.400;9.558;2023-05-13T09:21:51;7.03;;;3.38;;
5811;SDS011;2932;52.400;9.558;2023-05-13T09:24:17;4.00;;;3.20;;
5811;SDS011;2932;52.400;9.558;2023-05-13T09:26:45;7.07;;;4.40;;
5811;SDS011;2932;52.400;9.558;2023-05-13T09:29:22;6.72;;;3.90;;
5811;SDS011;2932;52.400;9.558;2023-05-13T09:31:50;5.07;;;3.67;;
5811;SDS011;2932;52.400;9.558;2023-05-13T09:34:27;4.32;;;3.13;;
5811;SDS011;2932;52.400;9.558;2023-05-13T09:37:01;10.23;;;4.10;;
5811;SDS011;2932;52.400;9.558;2023-05-13T09:39:30;7.68;;;3.50;;
5811;SDS011;2932;52.400;9.558;2023-05-13T09:42:03;3.53;;;3.05;;
5811;SDS011;2932;52.400;9.558;2023-05-13T09:44:29;4.35;;;3.58;;
5811;SDS011;2932;52.400;9.558;2023-05-13T09:46:54;5.50;;;3.45;;
5811;SDS011;2932;52.400;9.558;2023-05-13T09:49:24;4.10;;;3.58;;
5811;SDS011;2932;52.400;9.558;2023-05-13T09:51:50;6.55;;;3.58;;
5811;SDS011;2932;52.400;9.558;2023-05-13T09:54:16;8.23;;;3.80;;
5811;SDS011;2932;52.400;9.558;2023-05-13T09:56:42;4.97;;;3.25;;
5811;SDS011;2932;52.400;9.558;2023-05-13T09:59:07;5.70;;;3.90;;
5811;SDS011;2932;52.400;9.558;2023-05-13T10:01:33;3.88;;;2.90;;
5811;SDS011;2932;52.400;9.558;2023-05-13T10:04:00;5.80;;;3.78;;
5811;SDS011;2932;52.400;9.558;2023-05-13T10:06:26;5.07;;;3.45;;
5811;SDS011;2932;52.400;9.558;2023-05-13T10:08:54;6.57;;;3.88;;
5811;SDS011;2932;52.400;9.558;2023-05-13T10:11:23;6.28;;;3.78;;
5811;SDS011;2932;52.400;9.558;2023-05-13T10:13:49;3.70;;;3.30;;
5811;SDS011;2932;52.400;9.558;2023-05-13T10:16:19;5.15;;;3.40;;
5811;SDS011;2932;52.400;9.558;2023-05-13T10:18:46;11.55;;;3.95;;
5811;SDS011;2932;52.400;9.558;2023-05-13T10:21:12;7.05;;;3.10;;
5811;SDS011;2932;52.400;9.558;2023-05-13T10:23:38;5.05;;;3.13;;
5811;SDS011;2932;52.400;9.558;2023-05-13T10:26:04;7.03;;;3.30;;
5811;SDS011;2932;52.400;9.558;2023-05-13T10:28:30;6.75;;;3.70;;
5811;SDS011;2932;52.400;9.558;2023-05-13T10:30:56;5.63;;;3.55;;
5811;SDS011;2932;52.400;9.558;2023-05-13T10:33:25;4.95;;;3.25;;
5811;SDS011;2932;52.400;9.558;2023-05-13T10:36:05;6.38;;;3.83;;
5811;SDS011;2932;52.400;9.558;2023-05-13T10:44:33;4.25;;;3.20;;
5811;SDS011;2932;52.400;9.558;2023-05-13T10:47:00;4.75;;;3.75;;
5811;SDS011;2932;52.400;9.558;2023-05-13T10:49:31;6.45;;;3.25;;
5811;SDS011;2932;52.400;9.558;2023-05-13T10:52:08;4.22;;;3.00;;
5811;SDS011;2932;52.400;9.558;2023-05-13T10:54:38;4.28;;;3.20;;
5811;SDS011;2932;52.400;9.558;2023-05-13T10:57:06;3.92;;;3.00;;
5811;SDS011;2932;52.400;9.558;2023-05-13T10:59:32;6.20;;;2.97;;
5811;SDS011;2932;52.400;9.558;2023-05-13T11:02:00;5.55;;;2.67;;
5811;SDS011;2932;52.400;9.558;2023-05-13T11:04:26;5.13;;;2.80;;
5811;SDS011;2932;52.400;9.558;2023-05-13T11:06:51;4.22;;;2.80;;
5811;SDS011;2932;52.400;9.558;2023-05-13T11:11:46;5.00;;;2.97;;
5811;SDS011;2932;52.400;9.558;2023-05-13T11:19:20;5.32;;;3.20;;
5811;SDS011;2932;52.400;9.558;2023-05-13T11:21:50;5.35;;;3.38;;
5811;SDS011;2932;52.400;9.558;2023-05-13T11:24:17;4.05;;;3.42;;
5811;SDS011;2932;52.400;9.558;2023-05-13T11:26:44;4.18;;;3.25;;
5811;SDS011;2932;52.400;9.558;2023-05-13T11:29:10;3.58;;;3.25;;
5811;SDS011;2932;52.400;9.558;2023-05-13T11:34:08;3.70;;;2.90;;
5811;SDS011;2932;52.400;9.558;2023-05-13T11:36:39;5.07;;;2.92;;
5811;SDS011;2932;52.400;9.558;2023-05-13T11:39:10;8.43;;;3.13;;
5811;SDS011;2932;52.400;9.558;2023-05-13T11:41:47;5.47;;;3.08;;
5811;SDS011;2932;52.400;9.558;2023-05-13T11:44:17;6.00;;;2.70;;
5811;SDS011;2932;52.400;9.558;2023-05-13T11:46:51;4.25;;;3.13;;
5811;SDS011;2932;52.400;9.558;2023-05-13T11:52:02;4.60;;;3.30;;
5811;SDS011;2932;52.400;9.558;2023-05-13T11:54:30;3.55;;;2.80;;
5811;SDS011;2932;52.400;9.558;2023-05-13T11:56:55;6.22;;;2.88;;
5811;SDS011;2932;52.400;9.558;2023-05-13T11:59:21;6.82;;;2.92;;
5811;SDS011;2932;52.400;9.558;2023-05-13T12:01:59;6.22;;;2.85;;
5811;SDS011;2932;52.400;9.558;2023-05-13T12:04:26;6.15;;;2.90;;
5811;SDS011;2932;52.400;9.558;2023-05-13T12:06:54;2.92;;;2.63;;
5811;SDS011;2932;52.400;9.558;2023-05-13T12:09:21;9.18;;;2.90;;
5811;SDS011;2932;52.400;9.558;2023-05-13T12:11:50;3.78;;;2.55;;
5811;SDS011;2932;52.400;9.558;2023-05-13T12:14:16;3.03;;;2.75;;
5811;SDS011;2932;52.400;9.558;2023-05-13T12:16:44;7.30;;;2.70;;
5811;SDS011;2932;52.400;9.558;2023-05-13T12:19:10;5.68;;;2.65;;
5811;SDS011;2932;52.400;9.558;2023-05-13T12:21:36;3.03;;;2.60;;
5811;SDS011;2932;52.400;9.558;2023-05-13T12:24:02;9.05;;;2.75;;
5811;SDS011;2932;52.400;9.558;2023-05-13T12:26:40;6.15;;;2.53;;
5811;SDS011;2932;52.400;9.558;2023-05-13T12:29:06;3.38;;;2.67;;
5811;SDS011;2932;52.400;9.558;2023-05-13T12:31:31;5.65;;;2.97;;
5811;SDS011;2932;52.400;9.558;2023-05-13T12:33:56;6.43;;;2.78;;
5811;SDS011;2932;52.400;9.558;2023-05-13T12:36:25;4.95;;;2.60;;
5811;SDS011;2932;52.400;9.558;2023-05-13T12:41:29;5.40;;;2.65;;
5811;SDS011;2932;52.400;9.558;2023-05-13T12:43:56;2.72;;;2.10;;
5811;SDS011;2932;52.400;9.558;2023-05-13T12:46:23;5.47;;;2.50;;
5811;SDS011;2932;52.400;9.558;2023-05-13T12:48:50;2.80;;;2.58;;
5811;SDS011;2932;52.400;9.558;2023-05-13T12:51:16;3.60;;;2.47;;
5811;SDS011;2932;52.400;9.558;2023-05-13T12:53:42;5.88;;;2.83;;
5811;SDS011;2932;52.400;9.558;2023-05-13T12:56:07;6.00;;;2.55;;
5811;SDS011;2932;52.400;9.558;2023-05-13T12:58:32;3.70;;;2.63;;
5811;SDS011;2932;52.400;9.558;2023-05-13T13:00:58;5.55;;;2.60;;
5811;SDS011;2932;52.400;9.558;2023-05-13T13:03:23;7.03;;;2.40;;
5811;SDS011;2932;52.400;9.558;2023-05-13T13:05:48;4.78;;;2.35;;
5811;SDS011;2932;52.400;9.558;2023-05-13T13:08:15;3.17;;;2.55;;
5811;SDS011;2932;52.400;9.558;2023-05-13T13:10:40;3.30;;;2.17;;
5811;SDS011;2932;52.400;9.558;2023-05-13T13:13:06;6.15;;;2.30;;
5811;SDS011;2932;52.400;9.558;2023-05-13T13:15:31;2.83;;;2.15;;
5811;SDS011;2932;52.400;9.558;2023-05-13T13:17:56;2.47;;;2.28;;
5811;SDS011;2932;52.400;9.558;2023-05-13T13:20:22;24.90;;;3.17;;
5811;SDS011;2932;52.400;9.558;2023-05-13T13:22:47;6.13;;;2.70;;
5811;SDS011;2932;52.400;9.558;2023-05-13T13:25:13;4.97;;;2.20;;
5811;SDS011;2932;52.400;9.558;2023-05-13T13:27:40;5.63;;;2.45;;
5811;SDS011;2932;52.400;9.558;2023-05-13T13:30:05;4.20;;;2.45;;
5811;SDS011;2932;52.400;9.558;2023-05-13T13:32:31;2.78;;;2.58;;
5811;SDS011;2932;52.400;9.558;2023-05-13T13:34:59;3.65;;;2.90;;
5811;SDS011;2932;52.400;9.558;2023-05-13T13:37:26;2.15;;;2.00;;
5811;SDS011;2932;52.400;9.558;2023-05-13T13:39:52;5.18;;;2.40;;
5811;SDS011;2932;52.400;9.558;2023-05-13T13:42:17;4.07;;;2.40;;
5811;SDS011;2932;52.400;9.558;2023-05-13T13:44:43;6.97;;;2.33;;
5811;SDS011;2932;52.400;9.558;2023-05-13T13:47:08;3.75;;;2.20;;
5811;SDS011;2932;52.400;9.558;2023-05-13T13:49:33;3.20;;;2.08;;
5811;SDS011;2932;52.400;9.558;2023-05-13T13:52:00;5.32;;;2.00;;
5811;SDS011;2932;52.400;9.558;2023-05-13T13:54:25;6.90;;;2.40;;
5811;SDS011;2932;52.400;9.558;2023-05-13T13:56:50;3.95;;;2.03;;
5811;SDS011;2932;52.400;9.558;2023-05-13T13:59:16;3.78;;;1.80;;
5811;SDS011;2932;52.400;9.558;2023-05-13T14:01:43;3.25;;;2.03;;
5811;SDS011;2932;52.400;9.558;2023-05-13T14:04:12;3.13;;;1.98;;
5811;SDS011;2932;52.400;9.558;2023-05-13T14:06:40;3.05;;;1.95;;
5811;SDS011;2932;52.400;9.558;2023-05-13T14:09:06;1.88;;;1.60;;
5811;SDS011;2932;52.400;9.558;2023-05-13T14:11:33;4.45;;;1.83;;
5811;SDS011;2932;52.400;9.558;2023-05-13T14:13:58;3.58;;;1.90;;
5811;SDS011;2932;52.400;9.558;2023-05-13T14:16:23;2.58;;;2.35;;
5811;SDS011;2932;52.400;9.558;2023-05-13T14:18:49;1.88;;;1.77;;
5811;SDS011;2932;52.400;9.558;2023-05-13T14:21:15;2.30;;;2.10;;
5811;SDS011;2932;52.400;9.558;2023-05-13T14:23:41;3.67;;;1.90;;
5811;SDS011;2932;52.400;9.558;2023-05-13T14:26:07;1.80;;;1.70;;
5811;SDS011;2932;52.400;9.558;2023-05-13T14:28:33;2.42;;;2.00;;
5811;SDS011;2932;52.400;9.558;2023-05-13T14:30:59;5.70;;;2.13;;
5811;SDS011;2932;52.400;9.558;2023-05-13T14:33:24;2.92;;;2.05;;
5811;SDS011;2932;52.400;9.558;2023-05-13T14:35:50;3.40;;;1.52;;
5811;SDS011;2932;52.400;9.558;2023-05-13T14:38:15;2.47;;;2.17;;
5811;SDS011;2932;52.400;9.558;2023-05-13T14:40:40;1.77;;;1.60;;
5811;SDS011;2932;52.400;9.558;2023-05-13T14:43:06;3.00;;;2.08;;
5811;SDS011;2932;52.400;9.558;2023-05-13T14:45:31;3.33;;;2.10;;
5811;SDS011;2932;52.400;9.558;2023-05-13T14:47:57;4.22;;;2.10;;
5811;SDS011;2932;52.400;9.558;2023-05-13T14:50:22;4.95;;;2.03;;
5811;SDS011;2932;52.400;9.558;2023-05-13T14:52:47;3.30;;;2.03;;
5811;SDS011;2932;52.400;9.558;2023-05-13T14:55:13;8.77;;;1.85;;
5811;SDS011;2932;52.400;9.558;2023-05-13T14:57:38;3.15;;;1.70;;
5811;SDS011;2932;52.400;9.558;2023-05-13T15:00:04;4.20;;;2.00;;
5811;SDS011;2932;52.400;9.558;2023-05-13T15:02:30;3.17;;;1.60;;
5811;SDS011;2932;52.400;9.558;2023-05-13T15:04:56;2.80;;;1.73;;
5811;SDS011;2932;52.400;9.558;2023-05-13T15:07:21;2.60;;;1.80;;
5811;SDS011;2932;52.400;9.558;2023-05-13T15:09:46;3.13;;;1.77;;
5811;SDS011;2932;52.400;9.558;2023-05-13T15:12:12;4.33;;;2.10;;
5811;SDS011;2932;52.400;9.558;2023-05-13T15:14:37;3.55;;;2.15;;
5811;SDS011;2932;52.400;9.558;2023-05-13T15:17:02;2.95;;;1.75;;
5811;SDS011;2932;52.400;9.558;2023-05-13T15:19:29;6.07;;;1.73;;
5811;SDS011;2932;52.400;9.558;2023-05-13T15:21:55;2.95;;;1.77;;
5811;SDS011;2932;52.400;9.558;2023-05-13T15:24:20;2.08;;;1.83;;
5811;SDS011;2932;52.400;9.558;2023-05-13T15:26:47;2.55;;;2.00;;
5811;SDS011;2932;52.400;9.558;2023-05-13T15:29:13;2.38;;;2.10;;
5811;SDS011;2932;52.400;9.558;2023-05-13T15:31:40;3.00;;;1.70;;
5811;SDS011;2932;52.400;9.558;2023-05-13T15:34:05;3.50;;;1.92;;
5811;SDS011;2932;52.400;9.558;2023-05-13T15:36:32;1.67;;;1.58;;
5811;SDS011;2932;52.400;9.558;2023-05-13T15:38:58;2.08;;;1.73;;